createdAt,value
2024-04-23T00:05:53.825Z,6.81
2024-04-23T00:15:54.404Z,6.58
2024-04-23T00:25:54.987Z,5.98
2024-04-23T00:35:55.363Z,5.93
2024-04-23T00:45:55.832Z,5.91
2024-04-23T00:55:56.777Z,5.80
2024-04-23T01:05:56.769Z,6.02
2024-04-23T01:15:57.314Z,5.87
2024-04-23T01:25:57.925Z,5.81
2024-04-23T01:35:58.351Z,5.74
2024-04-23T01:45:58.875Z,6.08
2024-04-23T01:55:59.436Z,5.71
2024-04-23T02:05:59.907Z,5.57
2024-04-23T02:16:00.377Z,5.36
2024-04-23T02:26:02.440Z,5.42
2024-04-23T02:36:01.276Z,5.59
2024-04-23T02:46:01.762Z,5.64
2024-04-23T02:56:02.216Z,5.35
2024-04-23T03:06:03.824Z,5.29
2024-04-23T03:16:05.386Z,5.22
2024-04-23T03:26:04.653Z,5.42
2024-04-23T03:36:05.063Z,4.82
2024-04-23T03:46:05.504Z,4.79
2024-04-23T03:56:04.686Z,4.59
2024-04-23T04:06:05.071Z,4.50
2024-04-23T04:16:05.373Z,4.35
2024-04-23T04:26:05.790Z,4.90
2024-04-23T04:36:06.102Z,4.39
2024-04-23T04:46:06.432Z,4.56
2024-04-23T04:56:08.043Z,4.98
2024-04-23T05:06:08.671Z,4.97
2024-04-23T05:16:07.630Z,5.23
2024-04-23T05:26:08.119Z,6.59
2024-04-23T05:36:08.795Z,5.96
2024-04-23T05:46:09.283Z,6.15
2024-04-23T05:56:09.952Z,7.33
2024-04-23T06:06:10.760Z,7.19
2024-04-23T06:16:12.878Z,8.33
2024-04-23T06:26:12.363Z,7.25
2024-04-23T06:36:13.177Z,8.02
2024-04-23T06:46:13.981Z,8.46
2024-04-23T06:56:14.790Z,9.20
2024-04-23T07:06:15.770Z,8.99
2024-04-23T07:16:16.612Z,9.30
2024-04-23T07:26:17.515Z,10.35
2024-04-23T07:46:19.325Z,9.85
2024-04-23T07:56:20.350Z,10.68
2024-04-23T08:06:21.278Z,10.18
2024-04-23T08:16:22.301Z,10.16
2024-04-23T08:26:23.223Z,9.93
2024-04-23T08:36:25.327Z,9.63
2024-04-23T08:46:24.961Z,9.62
2024-04-23T08:56:27.182Z,9.67
2024-04-23T09:06:26.650Z,9.78
2024-04-23T09:26:28.342Z,10.00
2024-04-23T09:36:29.139Z,10.11
2024-04-23T09:46:30.030Z,10.39
2024-04-23T09:56:30.834Z,10.66
2024-04-23T10:06:31.787Z,10.32
2024-04-23T10:16:32.601Z,10.67
2024-04-23T10:26:33.485Z,11.28
2024-04-23T10:36:34.401Z,11.56
2024-04-23T10:46:35.470Z,11.55
2024-04-23T10:56:36.256Z,11.44
2024-04-23T11:06:37.322Z,12.15
2024-04-23T11:16:38.190Z,12.35
2024-04-23T11:26:39.187Z,12.55
2024-04-23T11:36:40.241Z,12.88
2024-04-23T11:46:41.408Z,12.67
2024-04-23T11:56:42.491Z,13.25
2024-04-23T12:06:43.637Z,13.19
2024-04-23T12:16:44.788Z,13.36
2024-04-23T12:26:45.899Z,13.15
2024-04-23T12:36:47.029Z,13.16
2024-04-23T12:56:51.105Z,12.96
2024-04-23T13:06:50.241Z,13.14
2024-04-23T13:16:52.056Z,13.05
2024-04-23T13:26:52.391Z,13.20
2024-04-23T13:36:53.530Z,13.61
2024-04-23T13:46:54.633Z,13.31
2024-04-23T13:56:55.722Z,13.26
2024-04-23T14:06:56.793Z,13.34
2024-04-23T14:16:58.229Z,13.36
2024-04-23T14:26:58.907Z,13.23
2024-04-23T14:37:00.060Z,12.96
2024-04-23T14:47:01.299Z,12.95
2024-04-23T14:57:02.313Z,12.80
2024-04-23T15:07:03.421Z,12.71
2024-04-23T15:17:04.579Z,12.71
2024-04-23T15:27:05.629Z,12.60
2024-04-23T15:37:06.722Z,12.25
2024-04-23T15:47:07.934Z,12.21
2024-04-23T15:57:08.855Z,12.30
2024-04-23T16:07:09.912Z,12.15
2024-04-23T16:17:11.095Z,12.09
2024-04-23T16:27:12.055Z,12.06
2024-04-23T16:37:13.062Z,12.15
2024-04-23T16:47:14.148Z,12.15
2024-04-23T16:57:15.117Z,12.23
2024-04-23T17:07:16.226Z,11.95
2024-04-23T17:17:17.358Z,11.86
2024-04-23T17:27:18.325Z,11.84
2024-04-23T17:37:19.391Z,11.98
2024-04-23T17:47:20.483Z,11.84
2024-04-23T17:57:21.413Z,11.77
2024-04-23T18:07:22.606Z,11.71
2024-04-23T18:17:24.987Z,11.81
2024-04-23T18:27:24.542Z,11.59
2024-04-23T18:37:25.730Z,11.54
2024-04-23T18:47:26.588Z,11.83
2024-04-23T18:57:27.679Z,11.76
2024-04-23T19:07:28.719Z,11.51
2024-04-23T19:17:31.058Z,11.21
2024-04-23T19:27:30.578Z,10.99
2024-04-23T19:37:31.688Z,10.91
2024-04-23T19:47:32.625Z,10.92
2024-04-23T19:57:35.011Z,10.87
2024-04-23T20:07:34.432Z,11.17
2024-04-23T20:27:36.127Z,10.65
2024-04-23T20:37:37.040Z,10.32
2024-04-23T20:47:38.033Z,10.20
2024-04-23T20:57:38.809Z,10.14
2024-04-23T21:07:39.722Z,9.98
2024-04-23T21:17:40.860Z,10.03
2024-04-23T21:27:41.447Z,9.80
2024-04-23T21:37:42.430Z,9.74
2024-04-23T21:47:43.352Z,9.61
2024-04-23T21:57:44.134Z,9.59
2024-04-23T22:07:44.965Z,9.50
2024-04-23T22:17:45.896Z,9.39
2024-04-23T22:27:46.714Z,9.34
2024-04-23T22:37:47.511Z,9.26
2024-04-23T22:47:48.347Z,9.29
2024-04-23T22:57:49.101Z,9.21
2024-04-23T23:07:49.909Z,9.32
2024-04-23T23:17:50.813Z,9.30
2024-04-23T23:27:51.574Z,9.23
2024-04-23T23:37:52.366Z,9.15
2024-04-23T23:47:54.499Z,9.11
2024-04-23T23:57:53.811Z,9.21
